リヤド の空港の天気 - METARとTAF

キング・ハーリド国際空港(リヤド) ( OERK / RUH ) - サウジアラビア リヤド
飛行場実況気象(Metar)
観測時間02/17 17:00 AST (02/17 14:00 UTC)
風向・風速北北東 5m/s
視程10km以上
天気現象
なし
気温19℃
湿度19%
気圧1019hPa
METAROERK 171400Z 02010KT CAVOK 19/M05 Q1019 NOSIG
過去の天気等 Google飛行場航空写真 Wunderground天気予報

過去48時間のMETAR

飛行場予報(TAF)
発表時間: 2/17 14:00 AST (2/17 11:00 UTC)
予報対象時間: 17日15時 AST ~ 18日21時 AST
風向・風速東北東 3m/s 瞬間風速 8m/s
視程8000m
少しの雲 雲底高度 1220m
全天の4割程度の雲 雲底高度 3050m
17日15時 AST ~ 17日21時 AST に一時的に
視程4000m
天気現象風塵 高い風塵
TAF OERK 171100Z 1712/1818 06005G15KT 8000 FEW040 SCT100
TEMPO 1712/1718 4000 DU BLDU